Captain Badr — 5IM905 — position and weather

sailwx.info

Track history (hours):
 
Tides and Currents Weather Stations Pressure Air Temp Water Temp Dewpoint Dewpoint Depression Visibility Wind Speed Wind Dir Waves Ship Positions

Captain Badr

Last reported at 2017-Dec-01 00:08 UTC. Time now 2017-Dec-11 20:51 UTC.
Position N 37°28' W 000°25'.
Warning: this ship's position is 10 days out of date.

Length 86 m; draft 5.2 m.

Type: Ship. MMSI: 677080500.

Date/timePositionNaut miles runAvg speedWind from/ knotsBaromVisibWave heightAir tempDewpointWater temp
2017-Dec-01 00:08N 37°28' W 000°25'1 8.5
2017-Dec-01 00:00N 37°28' W 000°26'4 8.6
2017-Nov-30 23:30N 37°28' W 000°32'6 7.7
2017-Nov-30 22:45N 37°29' W 000°39'2 8.6
2017-Nov-30 22:29N 37°30' W 000°42'8 8.4
2017-Nov-30 21:35N 37°30' W 000°51'1 8.6
2017-Nov-30 21:31N 37°30' W 000°52'5 8.9
2017-Nov-30 20:59N 37°31' W 000°58'  
2017-Nov-27 15:47N 37°31' W 000°48'3 9.7
2017-Nov-27 15:30N 37°31' W 000°45'468 9.5
2017-Nov-25 14:22N 37°42' E 009°06'15 8.5
2017-Nov-25 12:37N 37°42' E 009°25'2 8.1
2017-Nov-25 12:25N 37°42' E 009°27'  
Track history (hours):
 
Tides and Currents Weather Stations Pressure Air Temp Water Temp Dewpoint Dewpoint Depression Visibility Wind Speed Wind Dir Waves Ship Positions

Captain Badr

Last reported at 2017-Dec-01 00:08 UTC. Time now 2017-Dec-11 20:51 UTC.
Position N 37°28' W 000°25'.
Warning: this ship's position is 10 days out of date.

Length 86 m; draft 5.2 m.

Type: Ship. MMSI: 677080500.

Date/timePositionNaut miles runAvg speedWind from/ knotsBaromVisibWave heightAir tempDewpointWater temp
2017-Dec-01 00:08N 37°28' W 000°25'1 8.5
2017-Dec-01 00:00N 37°28' W 000°26'4 8.6
2017-Nov-30 23:30N 37°28' W 000°32'6 7.7
2017-Nov-30 22:45N 37°29' W 000°39'2 8.6
2017-Nov-30 22:29N 37°30' W 000°42'8 8.4
2017-Nov-30 21:35N 37°30' W 000°51'1 8.6
2017-Nov-30 21:31N 37°30' W 000°52'5 8.9
2017-Nov-30 20:59N 37°31' W 000°58'  
2017-Nov-27 15:47N 37°31' W 000°48'3 9.7
2017-Nov-27 15:30N 37°31' W 000°45'468 9.5
2017-Nov-25 14:22N 37°42' E 009°06'15 8.5
2017-Nov-25 12:37N 37°42' E 009°25'2 8.1
2017-Nov-25 12:25N 37°42' E 009°27'  

Dump ship's entire track history